Aeroporto :
LOGIN :

Iscrizione | Disclaimer

   EN    FR    IT 

 










Sommario :    VFR   VFR Marginale   IFR   IFR Intensivo   IFR Molto Intensivo
Visibilità : 
Base nubi : 
>= 8 km
>= 3000ft
5 / 8 km
1000 / 3000 ft
1500m / 5 km
500 / 1000 ft
800 / 1500m
200 / 500 ft
< 800m
< 200 ft
Simboli :   Temporali  Nebbia  Neve Forte  Precipitazioni Forti  Vento > 20 kt
SIGMETs :   Varie  Temporali  Ghiacco  Turbolenza  Onda orograficha  Ceneri Vulcaniche






- Altitudine del aeroporto : 584 ft


LFPV - Villacoublay Vélizy

ULTIMO METAR :
  • 150730Z AUTO 02009KT 350V050 6000 -RA BKN008/// OVC012/// ///TCU 04/03 Q0998 TEMPO 4500 -RADZ BECMG BKN008

METARs OBSOLETI :
  • 150700Z AUTO 02009KT 340V050 5000 RA BR OVC006/// ///TCU 04/03 Q0998 TEMPO NSW BECMG BKN008
  • 150630Z AUTO 36007KT 330V030 6000 -RA BKN007/// OVC011/// ///TCU 04/03 Q0997 TEMPO 4500 -RADZ BECMG BKN008
  • 150600Z AUTO 01009KT 340V040 6000 -RA BKN008/// OVC014/// ///TCU 04/03 Q0997 TEMPO 4500 -RADZ BECMG BKN008
  • 150530Z AUTO 36011KT 330V040 6000 -RA BKN006/// OVC012/// ///TCU 04/03 Q0997 TEMPO 4500 -RADZ BECMG BKN008
  • 150500Z AUTO 36007KT 320V020 5000 -RA BR BKN007/// OVC012/// ///TCU 04/03 Q0997 BECMG BKN017

TAF TAF LFPV
Valido dal 15 a 03 ore il 16 a 03 ore UTC


150200Z 1503/1603 01005KT 6000 BKN004 OVC012
TEMPO 1503/1516 4500 -RADZ
BECMG 1505/1506 BKN017
BECMG 1507/1509 BKN008
BECMG 1512/1514 28005KT BKN004
BECMG 1516/1518 20005KT
BECMG 1519/1521 BKN008
TEMPO 1519/1523 BKN017
BECMG 1602/1603 BKN003



MetMap, La meteo Aeronautica in un colpo d'occhio ! - Copyright ORBIFLY Dicembre 2007 - Disclaimer

ORBIFLY MET'MAP TEAM :

Programmazione e sviluppo : Alexandra Zaïnal
Concezione e sviluppo : Baudouin d'Aumeries
Co-Programmazione e sviluppo : Marc-Olivier Méhu
Supporto tecnico e logistico : Manuel Goepfert
Aiuto per la traduzione : Arnaldo La Scala

Contatto : metmap@orbifly.com




FONTI E CREDITI :

   NOAA